Swift Arrow — WAFK — position and weather

sailwx.info

Track history (hours):
 
Tides and Currents Weather Stations Pressure Air Temp Water Temp Dewpoint Dewpoint Depression Visibility Wind Speed Wind Dir Waves Ship Positions

Swift Arrow

Owner: ARROW LAUNCH SERVICE INC, Port Angeles, WA. More information available from US FCC via Universal Licensing System and Coast Guard Vessel Documentation Center.

Last reported at 2017-Oct-15 16:59 UTC. Time now 2017-Oct-18 20:36 UTC.
Position N 47°15' W 122°26'.

Type: Port tender. MMSI: 369021000.

Date/timePositionNaut miles runAvg speedWind from/ knotsBaromVisibWave heightAir tempDewpointWater temp
2017-Oct-15 16:59N 47°15' W 122°26'1 2.9
2017-Oct-15 16:31N 47°17' W 122°27'0 0.1
2017-Oct-15 16:00N 47°17' W 122°27'0 0.2
2017-Oct-15 15:30N 47°17' W 122°27'0 0.3
2017-Oct-15 15:00N 47°16' W 122°27'1 0.1
2017-Oct-14 22:20N 47°15' W 122°26'1 4.1
2017-Oct-14 22:00N 47°16' W 122°27'0 0.4
2017-Oct-14 21:30N 47°16' W 122°27'1 2.7
2017-Oct-14 21:00N 47°17' W 122°25'3 5.4
2017-Oct-14 20:30N 47°16' W 122°22'0 0.0
2017-Oct-14 20:00N 47°16' W 122°22'0 0.0
2017-Oct-14 19:30N 47°16' W 122°22'3 5.2
2017-Oct-14 19:00N 47°17' W 122°25'2 3.5
2017-Oct-14 18:30N 47°16' W 122°26'1 1.7
2017-Oct-14 18:00N 47°17' W 122°27'0 0.3
2017-Oct-14 17:30N 47°17' W 122°26'1 1.8
2017-Oct-14 17:00N 47°16' W 122°26'1 1.1
2017-Oct-14 16:30N 47°16' W 122°26'1 1.9
2017-Oct-14 15:57N 47°15' W 122°26'0 0.0
2017-Oct-14 08:42N 47°15' W 122°26'1 3.4
2017-Oct-14 08:30N 47°16' W 122°26'4 8.8
2017-Oct-14 08:01N 47°20' W 122°28'5 9.3
2017-Oct-14 07:30N 47°15' W 122°26'0 0.6
2017-Oct-14 07:00N 47°15' W 122°26'0 0.0
2017-Oct-14 06:30N 47°15' W 122°26'1 2.7
2017-Oct-14 06:00N 47°16' W 122°26'1 1.5
2017-Oct-14 05:30N 47°16' W 122°26'1 1.2
2017-Oct-14 05:00N 47°15' W 122°26'0 0.0
2017-Oct-12 18:37N 47°15' W 122°26'0 3.4
2017-Oct-12 18:30N 47°16' W 122°26'510.3
2017-Oct-12 18:01N 47°20' W 122°29'0 0.2
2017-Oct-12 17:30N 47°20' W 122°28'0 0.0
2017-Oct-12 17:00N 47°20' W 122°28'0 0.1
2017-Oct-12 16:31N 47°20' W 122°28'0 0.1
2017-Oct-12 16:01N 47°20' W 122°28'0 0.2
2017-Oct-12 15:31N 47°20' W 122°29'0 0.3
2017-Oct-12 15:00N 47°20' W 122°28'5 9.9
2017-Oct-12 14:30N 47°16' W 122°26'1 1.0
2017-Oct-12 13:59N 47°15' W 122°26'0 0.0
2017-Oct-11 20:09N 47°15' W 122°26'1 3.9
2017-Oct-11 20:00N 47°16' W 122°26'1 1.7
2017-Oct-11 19:30N 47°17' W 122°26'1 2.1
2017-Oct-11 19:00N 47°17' W 122°25'0 0.0
2017-Oct-11 18:30N 47°17' W 122°25'2 3.2
2017-Oct-11 18:00N 47°15' W 122°26'0 0.5
2017-Oct-11 17:30N 47°15' W 122°26'5 0.3
2017-Oct-11 00:00N 47°20' W 122°28'4 7.7
2017-Oct-10 23:30N 47°17' W 122°25'3 5.3
2017-Oct-10 23:01N 47°16' W 122°22'0 0.1
2017-Oct-10 22:30N 47°16' W 122°22'0 0.0
2017-Oct-10 22:00N 47°16' W 122°22'2 4.1
2017-Oct-10 21:30N 47°17' W 122°24'2 3.1
2017-Oct-10 20:50N 47°15' W 122°26'0 0.0
2017-Oct-10 20:24N 47°15' W 122°26'0 0.0
2017-Oct-10 19:58N 47°15' W 122°26'0 0.0
2017-Oct-10 19:27N 47°15' W 122°26'0 0.0
2017-Oct-10 18:58N 47°15' W 122°26'510.4
2017-Oct-10 18:30N 47°20' W 122°28'1 1.5
2017-Oct-10 18:00N 47°20' W 122°28'0 0.4
2017-Oct-10 17:30N 47°20' W 122°29'0 0.3
2017-Oct-10 17:00N 47°21' W 122°29'0 0.5
2017-Oct-10 16:30N 47°20' W 122°29'0 0.3
2017-Oct-10 16:00N 47°20' W 122°29'1 2.1
2017-Oct-10 15:31N 47°19' W 122°28'4 7.0
2017-Oct-10 14:52N 47°15' W 122°26'0 0.5
2017-Oct-10 14:00N 47°16' W 122°26'0 0.3
2017-Oct-10 13:30N 47°16' W 122°26'1 0.1
2017-Oct-10 04:21N 47°15' W 122°26'1 3.8
2017-Oct-10 04:00N 47°16' W 122°26'1 0.1
2017-Oct-09 14:17N 47°15' W 122°26'1 5.0
2017-Oct-09 14:00N 47°16' W 122°27'0 0.1
2017-Oct-09 13:30N 47°16' W 122°27'1 0.2
2017-Oct-09 05:17N 47°15' W 122°26'1 5.1
2017-Oct-09 05:00N 47°16' W 122°27'1 0.1
2017-Oct-08 16:11N 47°15' W 122°26'0 1.2
2017-Oct-08 16:00N 47°15' W 122°26'1 1.1
2017-Oct-08 15:30N 47°16' W 122°26'1 1.2
2017-Oct-08 15:00N 47°15' W 122°26'0 0.3
2017-Oct-08 14:26N 47°15' W 122°26'0 0.0
2017-Oct-08 14:00N 47°15' W 122°26'1 2.7
2017-Oct-08 13:30N 47°16' W 122°27'1 2.8
2017-Oct-08 13:00N 47°15' W 122°26'0 0.0
2017-Oct-08 05:13N 47°15' W 122°26'1 3.3
2017-Oct-08 05:00N 47°16' W 122°26'1 1.0
2017-Oct-08 04:19N 47°15' W 122°26'0 0.0
2017-Oct-08 03:54N 47°15' W 122°26'0 0.0
2017-Oct-08 03:29N 47°15' W 122°26'0 0.0
2017-Oct-08 03:00N 47°15' W 122°26'0 0.0
2017-Oct-08 02:28N 47°15' W 122°26'0 0.0
2017-Oct-08 01:56N 47°15' W 122°26'0 0.0
2017-Oct-08 01:26N 47°15' W 122°26'0 0.0
2017-Oct-08 01:00N 47°15' W 122°26'0 0.0
2017-Oct-08 00:30N 47°15' W 122°26'0 0.0
2017-Oct-08 00:00N 47°15' W 122°26'0 0.0
2017-Oct-07 23:29N 47°15' W 122°26'0 0.0
2017-Oct-07 23:00N 47°15' W 122°26'0 0.0
2017-Oct-07 22:30N 47°15' W 122°26'0 0.0
2017-Oct-07 22:00N 47°15' W 122°26'0 0.0
2017-Oct-07 21:29N 47°15' W 122°26'0 0.0
2017-Oct-07 20:59N 47°15' W 122°26'0 0.0
2017-Oct-07 20:13N 47°15' W 122°26'0 0.0
2017-Oct-07 19:48N 47°15' W 122°26'0 0.0
2017-Oct-07 19:16N 47°15' W 122°26'0 0.0
2017-Oct-07 18:58N 47°15' W 122°26'0 0.0
2017-Oct-07 18:30N 47°15' W 122°26'0 0.0
2017-Oct-07 18:00N 47°15' W 122°26'0 0.0
2017-Oct-07 17:30N 47°15' W 122°26'1 2.9
2017-Oct-07 17:00N 47°17' W 122°26'1 2.9
2017-Oct-07 16:30N 47°15' W 122°26'0 0.0
2017-Oct-07 16:00N 47°15' W 122°26'0 0.0
2017-Oct-07 15:29N 47°15' W 122°26'1 2.6
2017-Oct-07 15:00N 47°16' W 122°26'0 0.5
2017-Oct-07 14:30N 47°16' W 122°26'0 0.3
2017-Oct-07 14:00N 47°16' W 122°27'1 1.0
2017-Oct-07 13:30N 47°17' W 122°27'1 0.2
2017-Oct-07 05:24N 47°15' W 122°26'1 3.7
2017-Oct-07 05:01N 47°17' W 122°27'1 2.0
2017-Oct-07 04:17N 47°15' W 122°26'0 0.0
2017-Oct-07 03:55N 47°15' W 122°26'0 0.0
2017-Oct-07 02:33N 47°15' W 122°26'0 0.0
2017-Oct-07 02:26N 47°15' W 122°26'0 0.0
2017-Oct-07 02:00N 47°15' W 122°26'0 0.0
2017-Oct-07 01:28N 47°15' W 122°26'0 0.0
2017-Oct-07 00:59N 47°15' W 122°26'0 0.0
2017-Oct-07 00:29N 47°15' W 122°26'0 0.1
2017-Oct-07 00:01N 47°15' W 122°26'2 3.8
2017-Oct-06 23:31N 47°17' W 122°25'0 0.3
2017-Oct-06 22:03N 47°17' W 122°24'1 9.6
2017-Oct-06 22:00N 47°17' W 122°25'1 1.8
2017-Oct-06 21:30N 47°17' W 122°26'1 1.9
2017-Oct-06 21:01N 47°17' W 122°25'2 3.3
2017-Oct-06 20:29N 47°15' W 122°26'0 0.0
2017-Oct-06 19:04N 47°15' W 122°26'0 0.0
2017-Oct-06 18:46N 47°15' W 122°26'0 0.3
2017-Oct-06 18:30N 47°15' W 122°26'510.6
2017-Oct-06 18:00N 47°20' W 122°29'0 0.2
2017-Oct-06 17:30N 47°20' W 122°28'0 0.1
2017-Oct-06 17:00N 47°20' W 122°28'0 0.9
2017-Oct-06 16:31N 47°20' W 122°28'5 9.2
2017-Oct-06 15:58N 47°15' W 122°26'0 0.3
2017-Oct-06 15:26N 47°15' W 122°26'0 0.0
2017-Oct-06 14:57N 47°15' W 122°26'0 0.4
2017-Oct-06 14:30N 47°15' W 122°26'0 0.0
2017-Oct-06 14:00N 47°15' W 122°26'1 2.9
2017-Oct-06 13:30N 47°16' W 122°27'1 0.2
2017-Oct-06 05:22N 47°15' W 122°26'1 4.0
2017-Oct-06 05:00N 47°17' W 122°27'1 2.3
2017-Oct-06 04:24N 47°15' W 122°26'0 0.0
2017-Oct-06 04:01N 47°15' W 122°26'0 0.0
2017-Oct-06 03:29N 47°15' W 122°26'0 0.0
2017-Oct-06 02:59N 47°15' W 122°26'0 0.0
2017-Oct-06 02:30N 47°15' W 122°26'0 0.0
2017-Oct-06 02:01N 47°15' W 122°26'0 0.0
2017-Oct-06 01:30N 47°15' W 122°26'1 3.0
2017-Oct-06 01:00N 47°17' W 122°26'3 5.2
2017-Oct-06 00:31N 47°19' W 122°28'3 5.2
2017-Oct-06 00:00N 47°17' W 122°26'2 4.3
2017-Oct-05 23:30N 47°16' W 122°23'1 1.2
2017-Oct-05 22:39N 47°17' W 122°24'212.5
2017-Oct-05 22:30N 47°18' W 122°27'2 4.5
2017-Oct-05 22:01N 47°18' W 122°30'4 7.7
2017-Oct-05 21:30N 47°15' W 122°26'4 8.2
2017-Oct-05 21:00N 47°18' W 122°30'4 8.2
2017-Oct-05 20:30N 47°15' W 122°26'4 8.8
2017-Oct-05 20:00N 47°18' W 122°30'0 0.1
2017-Oct-05 19:30N 47°18' W 122°30'0 0.7
2017-Oct-05 19:00N 47°18' W 122°31'3 6.7
2017-Oct-05 18:30N 47°17' W 122°27'0 0.2
2017-Oct-05 18:00N 47°17' W 122°26'0 0.2
2017-Oct-05 17:30N 47°17' W 122°27'0 0.1
2017-Oct-05 17:00N 47°17' W 122°26'  
Track history (hours):
 
Tides and Currents Weather Stations Pressure Air Temp Water Temp Dewpoint Dewpoint Depression Visibility Wind Speed Wind Dir Waves Ship Positions

Swift Arrow

Owner: ARROW LAUNCH SERVICE INC, Port Angeles, WA. More information available from US FCC via Universal Licensing System and Coast Guard Vessel Documentation Center.

Last reported at 2017-Oct-15 16:59 UTC. Time now 2017-Oct-18 20:36 UTC.
Position N 47°15' W 122°26'.

Type: Port tender. MMSI: 369021000.

Date/timePositionNaut miles runAvg speedWind from/ knotsBaromVisibWave heightAir tempDewpointWater temp
2017-Oct-15 16:59N 47°15' W 122°26'1 2.9
2017-Oct-15 16:31N 47°17' W 122°27'0 0.1
2017-Oct-15 16:00N 47°17' W 122°27'0 0.2
2017-Oct-15 15:30N 47°17' W 122°27'0 0.3
2017-Oct-15 15:00N 47°16' W 122°27'1 0.1
2017-Oct-14 22:20N 47°15' W 122°26'1 4.1
2017-Oct-14 22:00N 47°16' W 122°27'0 0.4
2017-Oct-14 21:30N 47°16' W 122°27'1 2.7
2017-Oct-14 21:00N 47°17' W 122°25'3 5.4
2017-Oct-14 20:30N 47°16' W 122°22'0 0.0
2017-Oct-14 20:00N 47°16' W 122°22'0 0.0
2017-Oct-14 19:30N 47°16' W 122°22'3 5.2
2017-Oct-14 19:00N 47°17' W 122°25'2 3.5
2017-Oct-14 18:30N 47°16' W 122°26'1 1.7
2017-Oct-14 18:00N 47°17' W 122°27'0 0.3
2017-Oct-14 17:30N 47°17' W 122°26'1 1.8
2017-Oct-14 17:00N 47°16' W 122°26'1 1.1
2017-Oct-14 16:30N 47°16' W 122°26'1 1.9
2017-Oct-14 15:57N 47°15' W 122°26'0 0.0
2017-Oct-14 08:42N 47°15' W 122°26'1 3.4
2017-Oct-14 08:30N 47°16' W 122°26'4 8.8
2017-Oct-14 08:01N 47°20' W 122°28'5 9.3
2017-Oct-14 07:30N 47°15' W 122°26'0 0.6
2017-Oct-14 07:00N 47°15' W 122°26'0 0.0
2017-Oct-14 06:30N 47°15' W 122°26'1 2.7
2017-Oct-14 06:00N 47°16' W 122°26'1 1.5
2017-Oct-14 05:30N 47°16' W 122°26'1 1.2
2017-Oct-14 05:00N 47°15' W 122°26'0 0.0
2017-Oct-12 18:37N 47°15' W 122°26'0 3.4
2017-Oct-12 18:30N 47°16' W 122°26'510.3
2017-Oct-12 18:01N 47°20' W 122°29'0 0.2
2017-Oct-12 17:30N 47°20' W 122°28'0 0.0
2017-Oct-12 17:00N 47°20' W 122°28'0 0.1
2017-Oct-12 16:31N 47°20' W 122°28'0 0.1
2017-Oct-12 16:01N 47°20' W 122°28'0 0.2
2017-Oct-12 15:31N 47°20' W 122°29'0 0.3
2017-Oct-12 15:00N 47°20' W 122°28'5 9.9
2017-Oct-12 14:30N 47°16' W 122°26'1 1.0
2017-Oct-12 13:59N 47°15' W 122°26'0 0.0
2017-Oct-11 20:09N 47°15' W 122°26'1 3.9
2017-Oct-11 20:00N 47°16' W 122°26'1 1.7
2017-Oct-11 19:30N 47°17' W 122°26'1 2.1
2017-Oct-11 19:00N 47°17' W 122°25'0 0.0
2017-Oct-11 18:30N 47°17' W 122°25'2 3.2
2017-Oct-11 18:00N 47°15' W 122°26'0 0.5
2017-Oct-11 17:30N 47°15' W 122°26'5 0.3
2017-Oct-11 00:00N 47°20' W 122°28'4 7.7
2017-Oct-10 23:30N 47°17' W 122°25'3 5.3
2017-Oct-10 23:01N 47°16' W 122°22'0 0.1
2017-Oct-10 22:30N 47°16' W 122°22'0 0.0
2017-Oct-10 22:00N 47°16' W 122°22'2 4.1
2017-Oct-10 21:30N 47°17' W 122°24'2 3.1
2017-Oct-10 20:50N 47°15' W 122°26'0 0.0
2017-Oct-10 20:24N 47°15' W 122°26'0 0.0
2017-Oct-10 19:58N 47°15' W 122°26'0 0.0
2017-Oct-10 19:27N 47°15' W 122°26'0 0.0
2017-Oct-10 18:58N 47°15' W 122°26'510.4
2017-Oct-10 18:30N 47°20' W 122°28'1 1.5
2017-Oct-10 18:00N 47°20' W 122°28'0 0.4
2017-Oct-10 17:30N 47°20' W 122°29'0 0.3
2017-Oct-10 17:00N 47°21' W 122°29'0 0.5
2017-Oct-10 16:30N 47°20' W 122°29'0 0.3
2017-Oct-10 16:00N 47°20' W 122°29'1 2.1
2017-Oct-10 15:31N 47°19' W 122°28'4 7.0
2017-Oct-10 14:52N 47°15' W 122°26'0 0.5
2017-Oct-10 14:00N 47°16' W 122°26'0 0.3
2017-Oct-10 13:30N 47°16' W 122°26'1 0.1
2017-Oct-10 04:21N 47°15' W 122°26'1 3.8
2017-Oct-10 04:00N 47°16' W 122°26'1 0.1
2017-Oct-09 14:17N 47°15' W 122°26'1 5.0
2017-Oct-09 14:00N 47°16' W 122°27'0 0.1
2017-Oct-09 13:30N 47°16' W 122°27'1 0.2
2017-Oct-09 05:17N 47°15' W 122°26'1 5.1
2017-Oct-09 05:00N 47°16' W 122°27'1 0.1
2017-Oct-08 16:11N 47°15' W 122°26'0 1.2
2017-Oct-08 16:00N 47°15' W 122°26'1 1.1
2017-Oct-08 15:30N 47°16' W 122°26'1 1.2
2017-Oct-08 15:00N 47°15' W 122°26'0 0.3
2017-Oct-08 14:26N 47°15' W 122°26'0 0.0
2017-Oct-08 14:00N 47°15' W 122°26'1 2.7
2017-Oct-08 13:30N 47°16' W 122°27'1 2.8
2017-Oct-08 13:00N 47°15' W 122°26'0 0.0
2017-Oct-08 05:13N 47°15' W 122°26'1 3.3
2017-Oct-08 05:00N 47°16' W 122°26'1 1.0
2017-Oct-08 04:19N 47°15' W 122°26'0 0.0
2017-Oct-08 03:54N 47°15' W 122°26'0 0.0
2017-Oct-08 03:29N 47°15' W 122°26'0 0.0
2017-Oct-08 03:00N 47°15' W 122°26'0 0.0
2017-Oct-08 02:28N 47°15' W 122°26'0 0.0
2017-Oct-08 01:56N 47°15' W 122°26'0 0.0
2017-Oct-08 01:26N 47°15' W 122°26'0 0.0
2017-Oct-08 01:00N 47°15' W 122°26'0 0.0
2017-Oct-08 00:30N 47°15' W 122°26'0 0.0
2017-Oct-08 00:00N 47°15' W 122°26'0 0.0
2017-Oct-07 23:29N 47°15' W 122°26'0 0.0
2017-Oct-07 23:00N 47°15' W 122°26'0 0.0
2017-Oct-07 22:30N 47°15' W 122°26'0 0.0
2017-Oct-07 22:00N 47°15' W 122°26'0 0.0
2017-Oct-07 21:29N 47°15' W 122°26'0 0.0
2017-Oct-07 20:59N 47°15' W 122°26'0 0.0
2017-Oct-07 20:13N 47°15' W 122°26'0 0.0
2017-Oct-07 19:48N 47°15' W 122°26'0 0.0
2017-Oct-07 19:16N 47°15' W 122°26'0 0.0
2017-Oct-07 18:58N 47°15' W 122°26'0 0.0
2017-Oct-07 18:30N 47°15' W 122°26'0 0.0
2017-Oct-07 18:00N 47°15' W 122°26'0 0.0
2017-Oct-07 17:30N 47°15' W 122°26'1 2.9
2017-Oct-07 17:00N 47°17' W 122°26'1 2.9
2017-Oct-07 16:30N 47°15' W 122°26'0 0.0
2017-Oct-07 16:00N 47°15' W 122°26'0 0.0
2017-Oct-07 15:29N 47°15' W 122°26'1 2.6
2017-Oct-07 15:00N 47°16' W 122°26'0 0.5
2017-Oct-07 14:30N 47°16' W 122°26'0 0.3
2017-Oct-07 14:00N 47°16' W 122°27'1 1.0
2017-Oct-07 13:30N 47°17' W 122°27'1 0.2
2017-Oct-07 05:24N 47°15' W 122°26'1 3.7
2017-Oct-07 05:01N 47°17' W 122°27'1 2.0
2017-Oct-07 04:17N 47°15' W 122°26'0 0.0
2017-Oct-07 03:55N 47°15' W 122°26'0 0.0
2017-Oct-07 02:33N 47°15' W 122°26'0 0.0
2017-Oct-07 02:26N 47°15' W 122°26'0 0.0
2017-Oct-07 02:00N 47°15' W 122°26'0 0.0
2017-Oct-07 01:28N 47°15' W 122°26'0 0.0
2017-Oct-07 00:59N 47°15' W 122°26'0 0.0
2017-Oct-07 00:29N 47°15' W 122°26'0 0.1
2017-Oct-07 00:01N 47°15' W 122°26'2 3.8
2017-Oct-06 23:31N 47°17' W 122°25'0 0.3
2017-Oct-06 22:03N 47°17' W 122°24'1 9.6
2017-Oct-06 22:00N 47°17' W 122°25'1 1.8
2017-Oct-06 21:30N 47°17' W 122°26'1 1.9
2017-Oct-06 21:01N 47°17' W 122°25'2 3.3
2017-Oct-06 20:29N 47°15' W 122°26'0 0.0
2017-Oct-06 19:04N 47°15' W 122°26'0 0.0
2017-Oct-06 18:46N 47°15' W 122°26'0 0.3
2017-Oct-06 18:30N 47°15' W 122°26'510.6
2017-Oct-06 18:00N 47°20' W 122°29'0 0.2
2017-Oct-06 17:30N 47°20' W 122°28'0 0.1
2017-Oct-06 17:00N 47°20' W 122°28'0 0.9
2017-Oct-06 16:31N 47°20' W 122°28'5 9.2
2017-Oct-06 15:58N 47°15' W 122°26'0 0.3
2017-Oct-06 15:26N 47°15' W 122°26'0 0.0
2017-Oct-06 14:57N 47°15' W 122°26'0 0.4
2017-Oct-06 14:30N 47°15' W 122°26'0 0.0
2017-Oct-06 14:00N 47°15' W 122°26'1 2.9
2017-Oct-06 13:30N 47°16' W 122°27'1 0.2
2017-Oct-06 05:22N 47°15' W 122°26'1 4.0
2017-Oct-06 05:00N 47°17' W 122°27'1 2.3
2017-Oct-06 04:24N 47°15' W 122°26'0 0.0
2017-Oct-06 04:01N 47°15' W 122°26'0 0.0
2017-Oct-06 03:29N 47°15' W 122°26'0 0.0
2017-Oct-06 02:59N 47°15' W 122°26'0 0.0
2017-Oct-06 02:30N 47°15' W 122°26'0 0.0
2017-Oct-06 02:01N 47°15' W 122°26'0 0.0
2017-Oct-06 01:30N 47°15' W 122°26'1 3.0
2017-Oct-06 01:00N 47°17' W 122°26'3 5.2
2017-Oct-06 00:31N 47°19' W 122°28'3 5.2
2017-Oct-06 00:00N 47°17' W 122°26'2 4.3
2017-Oct-05 23:30N 47°16' W 122°23'1 1.2
2017-Oct-05 22:39N 47°17' W 122°24'212.5
2017-Oct-05 22:30N 47°18' W 122°27'2 4.5
2017-Oct-05 22:01N 47°18' W 122°30'4 7.7
2017-Oct-05 21:30N 47°15' W 122°26'4 8.2
2017-Oct-05 21:00N 47°18' W 122°30'4 8.2
2017-Oct-05 20:30N 47°15' W 122°26'4 8.8
2017-Oct-05 20:00N 47°18' W 122°30'0 0.1
2017-Oct-05 19:30N 47°18' W 122°30'0 0.7
2017-Oct-05 19:00N 47°18' W 122°31'3 6.7
2017-Oct-05 18:30N 47°17' W 122°27'0 0.2
2017-Oct-05 18:00N 47°17' W 122°26'0 0.2
2017-Oct-05 17:30N 47°17' W 122°27'0 0.1
2017-Oct-05 17:00N 47°17' W 122°26'  

Dump ship's entire track history